Time;durP1;ratioP1;P1;durP2;ratioP2;P2;SDS_P1;SDS_P2;PMS_P1;PMS_P2;Temp;Humidity;BMP_temperature;BMP_pressure;BME280_temperature;BME280_humidity;BME280_pressure;Samples;Min_cycle;Max_cycle;Signal;HPM_P1;HPM_P2
2023/04/19 00:00:18;;;;;;;10.57;8.50;;;;;;;11.86;37.99;102194.84;5071279;28;20051;-78
2023/04/19 00:02:48;;;;;;;10.57;8.65;;;;;;;11.83;37.71;102190.47;5066691;28;20082;-78
2023/04/19 00:05:17;;;;;;;11.55;8.95;;;;;;;11.83;37.52;102189.59;5079569;28;20039;-77
2023/04/19 00:07:45;;;;;;;12.05;9.48;;;;;;;11.84;37.94;102191.34;5070027;28;20084;-78
2023/04/19 00:10:14;;;;;;;10.65;8.57;;;;;;;11.83;37.88;102195.06;5067790;28;20120;-78
2023/04/19 00:12:41;;;;;;;10.75;8.88;;;;;;;11.82;37.62;102191.44;5066832;28;20135;-77
2023/04/19 00:15:14;;;;;;;12.45;9.13;;;;;;;11.84;38.31;102186.72;5073548;28;21611;-78
2023/04/19 00:17:44;;;;;;;11.68;8.45;;;;;;;11.82;38.01;102185.97;5072381;28;20051;-78
2023/04/19 00:20:12;;;;;;;11.50;8.65;;;;;;;11.81;38.13;102181.44;5070664;28;20043;-78
2023/04/19 00:22:40;;;;;;;10.60;8.23;;;;;;;11.82;37.71;102182.34;5071954;28;20482;-78
2023/04/19 00:25:09;;;;;;;10.13;8.55;;;;;;;11.82;38.28;102174.97;5058230;28;20700;-77
2023/04/19 00:27:37;;;;;;;11.10;8.93;;;;;;;11.80;37.88;102182.44;5069651;28;20051;-78
2023/04/19 00:30:06;;;;;;;10.52;8.02;;;;;;;11.81;37.71;102172.34;5052540;28;20039;-78
2023/04/19 00:32:35;;;;;;;10.32;8.38;;;;;;;11.81;37.69;102175.09;5051479;28;20087;-77
2023/04/19 00:35:07;;;;;;;10.38;8.52;;;;;;;11.82;38.59;102174.97;5056481;28;20504;-78
2023/04/19 00:37:35;;;;;;;11.98;8.65;;;;;;;11.79;38.34;102183.47;5072108;28;20143;-77
2023/04/19 00:40:05;;;;;;;11.07;8.88;;;;;;;11.80;38.09;102174.22;5055020;28;20521;-78
2023/04/19 00:42:33;;;;;;;12.70;9.00;;;;;;;11.78;38.03;102178.94;5055901;28;20056;-78
2023/04/19 00:45:02;;;;;;;11.73;8.68;;;;;;;11.79;38.54;102177.97;5051053;28;20119;-76
2023/04/19 00:47:30;;;;;;;10.32;8.27;;;;;;;11.79;38.48;102175.22;5048929;28;21779;-76
2023/04/19 00:49:59;;;;;;;11.40;8.90;;;;;;;11.78;38.48;102175.34;5068911;28;20085;-76
2023/04/19 00:52:29;;;;;;;11.25;8.85;;;;;;;11.77;38.17;102177.19;5077826;28;20071;-78
2023/04/19 00:54:58;;;;;;;11.13;8.57;;;;;;;11.76;38.71;102174.56;5049845;28;20040;-76
2023/04/19 00:57:26;;;;;;;11.25;8.38;;;;;;;11.76;38.69;102177.28;5030036;28;20449;-77
2023/04/19 00:59:56;;;;;;;11.23;8.50;;;;;;;11.75;38.80;102173.69;5075382;28;20044;-77
2023/04/19 01:02:24;;;;;;;11.80;8.65;;;;;;;11.73;38.83;102175.66;5050660;28;20056;-77
2023/04/19 01:04:53;;;;;;;11.23;8.32;;;;;;;11.73;38.70;102170.16;5054971;28;20080;-77
2023/04/19 01:07:21;;;;;;;11.63;9.18;;;;;;;11.71;38.72;102169.41;5075021;28;20071;-77
2023/04/19 01:09:51;;;;;;;11.23;8.88;;;;;;;11.70;38.98;102162.16;5052843;28;20139;-77
2023/04/19 01:12:21;;;;;;;13.00;8.93;;;;;;;11.66;38.49;102161.50;5068588;28;20045;-77
2023/04/19 01:14:50;;;;;;;11.15;8.77;;;;;;;11.69;38.94;102164.03;5080526;28;20041;-77
2023/04/19 01:17:18;;;;;;;11.40;9.18;;;;;;;11.68;38.88;102167.75;5049040;28;20057;-77
2023/04/19 01:19:46;;;;;;;11.23;8.43;;;;;;;11.67;39.09;102160.50;5049351;28;20036;-77
2023/04/19 01:22:20;;;;;;;11.57;8.65;;;;;;;11.71;39.47;102159.31;5051213;28;20102;-77
2023/04/19 01:24:48;;;;;;;10.77;8.13;;;;;;;11.69;39.16;102155.81;5051360;28;20040;-77
2023/04/19 01:27:16;;;;;;;11.93;8.95;;;;;;;11.70;38.89;102157.56;5070276;28;20089;-77
2023/04/19 01:29:44;;;;;;;10.70;8.68;;;;;;;11.69;38.78;102153.06;5068775;28;20037;-76
2023/04/19 01:32:12;;;;;;;11.02;8.60;;;;;;;11.70;38.92;102149.34;5069064;28;20043;-77
2023/04/19 01:34:41;;;;;;;12.45;9.18;;;;;;;11.71;38.88;102152.97;5071614;28;20055;-77
2023/04/19 01:37:09;;;;;;;12.20;9.10;;;;;;;11.70;39.05;102152.09;5052815;28;20386;-77
2023/04/19 01:39:39;;;;;;;13.35;8.70;;;;;;;11.72;39.32;102149.19;5072880;28;20089;-77
2023/04/19 01:42:07;;;;;;;11.30;8.35;;;;;;;11.71;39.02;102153.84;5051917;28;20131;-77
2023/04/19 01:44:36;;;;;;;13.20;8.98;;;;;;;11.72;39.42;102154.69;5071020;28;20076;-77
2023/04/19 01:47:05;;;;;;;11.13;8.98;;;;;;;11.73;39.10;102153.69;5072537;28;20513;-77
2023/04/19 01:49:33;;;;;;;11.30;8.55;;;;;;;11.72;39.15;102143.72;5066817;28;20041;-77
2023/04/19 01:52:01;;;;;;;12.35;8.77;;;;;;;11.72;39.12;102149.19;5073204;28;20554;-77
2023/04/19 01:54:29;;;;;;;11.20;8.80;;;;;;;11.72;39.39;102143.72;5059816;28;20471;-77
2023/04/19 01:57:00;;;;;;;10.77;8.32;;;;;;;11.73;39.90;102148.22;5077097;28;20051;-77
2023/04/19 01:59:28;;;;;;;11.10;8.40;;;;;;;11.72;39.61;102138.22;5056627;28;20041;-77
2023/04/19 02:01:56;;;;;;;11.50;8.35;;;;;;;11.71;39.72;102142.00;5057136;28;20645;-77
2023/04/19 02:04:25;;;;;;;12.75;9.35;;;;;;;11.70;39.94;102138.38;5060526;28;20036;-77
2023/04/19 02:06:53;;;;;;;11.70;9.00;;;;;;;11.70;39.51;102143.84;5072839;28;20056;-77
2023/04/19 02:09:21;;;;;;;10.43;8.10;;;;;;;11.68;39.62;102137.59;5071716;28;20032;-77
2023/04/19 02:11:49;;;;;;;11.57;8.70;;;;;;;11.68;39.61;102136.72;5057271;28;20087;-77
2023/04/19 02:14:18;;;;;;;11.85;8.65;;;;;;;11.70;40.05;102137.50;5058556;28;20384;-77
2023/04/19 02:16:46;;;;;;;11.35;8.80;;;;;;;11.68;39.94;102132.09;5058997;28;20049;-77
2023/04/19 02:19:14;;;;;;;11.85;8.82;;;;;;;11.67;39.91;102138.56;5053218;28;20102;-77
2023/04/19 02:21:42;;;;;;;10.35;8.15;;;;;;;11.67;40.13;102133.09;5056141;28;20051;-77
2023/04/19 02:24:14;;;;;;;12.07;8.75;;;;;;;11.67;40.15;102127.59;5071255;28;20041;-77
2023/04/19 02:26:42;;;;;;;10.57;8.75;;;;;;;11.66;40.03;102133.19;5050249;28;20049;-77
2023/04/19 02:29:10;;;;;;;12.48;8.88;;;;;;;11.65;40.35;102129.56;5047252;28;20113;-77
2023/04/19 02:31:40;;;;;;;10.35;8.65;;;;;;;11.65;40.40;102129.56;5052827;28;20139;-77
2023/04/19 02:34:09;;;;;;;10.13;8.00;;;;;;;11.64;40.61;102132.41;5063636;28;20131;-78
2023/04/19 02:36:37;;;;;;;10.45;8.23;;;;;;;11.63;40.29;102125.22;5073118;28;20552;-78
2023/04/19 02:39:05;;;;;;;10.82;8.38;;;;;;;11.62;40.21;102128.94;5065892;28;20090;-78
2023/04/19 02:41:33;;;;;;;12.02;9.27;;;;;;;11.60;40.38;102128.13;5073351;28;20056;-77
2023/04/19 02:44:02;;;;;;;10.75;8.50;;;;;;;11.59;40.32;102134.59;5065117;28;20409;-78
2023/04/19 02:46:29;;;;;;;10.15;8.35;;;;;;;11.58;40.39;102128.22;5056766;28;20075;-77
2023/04/19 02:49:00;;;;;;;11.60;8.65;;;;;;;11.58;40.94;102130.09;5055517;28;20663;-78
2023/04/19 02:51:28;;;;;;;10.25;8.35;;;;;;;11.56;40.66;102134.81;5054157;28;20061;-77
2023/04/19 02:53:56;;;;;;;12.23;9.23;;;;;;;11.52;40.26;102134.16;5077810;28;20425;-77
2023/04/19 02:56:24;;;;;;;10.85;9.00;;;;;;;11.48;40.91;102132.63;5053162;28;20045;-78
2023/04/19 02:58:53;;;;;;;11.25;8.98;;;;;;;11.49;40.74;102130.75;5062036;28;20068;-78
2023/04/19 03:01:21;;;;;;;10.60;8.32;;;;;;;11.48;40.84;102134.47;5051408;28;20065;-77
2023/04/19 03:03:49;;;;;;;11.68;9.13;;;;;;;11.46;40.58;102133.72;5059922;28;20055;-77
2023/04/19 03:06:19;;;;;;;12.07;8.77;;;;;;;11.46;40.75;102123.66;5050684;28;20114;-77
2023/04/19 03:08:47;;;;;;;11.18;8.57;;;;;;;11.43;40.37;102129.34;5065957;28;20240;-77
2023/04/19 03:11:17;;;;;;;11.38;8.55;;;;;;;11.43;40.46;102123.84;5059465;28;20063;-77
2023/04/19 03:13:46;;;;;;;12.48;8.85;;;;;;;11.41;40.55;102128.56;5073457;28;20044;-77
2023/04/19 03:16:15;;;;;;;12.98;9.63;;;;;;;11.38;40.46;102123.31;5060319;28;20044;-78
2023/04/19 03:18:43;;;;;;;11.65;8.80;;;;;;;11.38;40.90;102123.31;5056537;28;20048;-78
2023/04/19 03:21:16;;;;;;;11.73;8.95;;;;;;;11.34;40.75;102117.16;5059819;28;20128;-77
2023/04/19 03:23:53;;;;;;;12.05;9.00;;;;;;;11.36;40.54;102117.06;5055093;28;20515;-77
2023/04/19 03:26:22;;;;;;;11.32;9.25;;;;;;;11.35;40.52;102124.41;5055120;28;20079;-77
2023/04/19 03:28:53;;;;;;;10.85;8.23;;;;;;;11.33;40.76;102117.25;5054650;28;20049;-77
2023/04/19 03:31:42;;;;;;;11.77;8.55;;;;;;;11.30;40.58;102110.16;5054144;28;20060;-77
2023/04/19 03:34:12;;;;;;;12.40;9.50;;;;;;;11.30;40.62;102112.91;5056675;28;20124;-78
2023/04/19 03:36:44;;;;;;;12.02;8.52;;;;;;;11.28;41.09;102106.63;5054547;28;20114;-78
2023/04/19 03:39:14;;;;;;;11.45;8.50;;;;;;;11.31;40.87;102117.38;5057245;28;21750;-78
2023/04/19 03:41:45;;;;;;;10.32;8.45;;;;;;;11.29;41.05;102099.31;5056481;28;20449;-77
2023/04/19 03:44:21;;;;;;;10.32;8.15;;;;;;;11.30;40.68;102103.81;5058357;28;20048;-78
2023/04/19 03:46:49;;;;;;;9.55;8.18;;;;;;;11.32;40.79;102110.03;5062683;28;20045;-78
2023/04/19 03:49:22;;;;;;;9.82;7.57;;;;;;;11.31;41.10;102100.91;5075823;28;20131;-78
2023/04/19 03:51:58;;;;;;;10.27;7.70;;;;;;;11.34;41.30;102108.94;5053034;28;20052;-78
2023/04/19 03:54:28;;;;;;;9.27;7.32;;;;;;;11.36;41.23;102106.97;5052543;28;20139;-78
2023/04/19 03:56:57;;;;;;;11.13;8.35;;;;;;;11.36;40.90;102104.22;5051378;28;20056;-78
2023/04/19 03:59:26;;;;;;;9.65;7.22;;;;;;;11.38;40.97;102100.50;5052923;28;20048;-77
2023/04/19 04:01:54;;;;;;;11.40;8.20;;;;;;;11.40;40.67;102104.00;5055168;28;20040;-78
2023/04/19 04:04:22;;;;;;;10.82;7.60;;;;;;;11.40;40.61;102098.50;5051397;28;20098;-77
2023/04/19 04:06:51;;;;;;;11.10;7.65;;;;;;;11.40;41.09;102104.88;5048185;28;20102;-78
2023/04/19 04:09:19;;;;;;;9.52;7.18;;;;;;;11.40;40.52;102101.25;5072104;28;20131;-78
2023/04/19 04:11:48;;;;;;;9.52;7.00;;;;;;;11.41;40.80;102095.66;5051291;28;20445;-78
2023/04/19 04:14:16;;;;;;;9.38;7.25;;;;;;;11.39;40.36;102096.78;5059013;28;20067;-77
2023/04/19 04:16:46;;;;;;;10.95;7.18;;;;;;;11.39;40.96;102099.53;5055480;28;20148;-77
2023/04/19 04:19:16;;;;;;;9.07;6.90;;;;;;;11.38;41.00;102093.16;5052888;28;20050;-77
2023/04/19 04:21:44;;;;;;;10.38;6.57;;;;;;;11.35;40.79;102090.63;5053095;28;20084;-77
2023/04/19 04:24:13;;;;;;;8.27;6.22;;;;;;;11.34;40.79;102087.00;5054570;28;20048;-77
2023/04/19 04:27:02;;;;;;;8.23;6.05;;;;;;;11.35;40.44;102091.50;5062931;28;20115;-77
2023/04/19 04:29:33;;;;;;;8.32;6.30;;;;;;;11.35;40.39;102090.63;5053156;28;20416;-77
2023/04/19 04:32:04;;;;;;;9.00;5.65;;;;;;;11.33;40.50;102093.47;5049406;28;20123;-77
2023/04/19 04:34:39;;;;;;;7.82;5.75;;;;;;;11.33;40.18;102087.13;5047489;28;20127;-76
2023/04/19 04:37:12;;;;;;;8.48;5.80;;;;;;;11.30;40.62;102088.22;5045173;28;20055;-77
2023/04/19 04:39:41;;;;;;;8.05;5.53;;;;;;;11.30;40.04;102093.72;5046719;28;20059;-77
2023/04/19 04:42:12;;;;;;;7.90;5.40;;;;;;;11.30;40.51;102093.72;5044292;28;20127;-78
2023/04/19 04:44:41;;;;;;;7.32;5.40;;;;;;;11.28;40.45;102095.69;5054548;28;20040;-77
2023/04/19 04:47:12;;;;;;;7.47;5.40;;;;;;;11.28;40.07;102087.47;5049903;28;20048;-78
2023/04/19 04:49:52;;;;;;;8.27;5.75;;;;;;;11.23;40.28;102086.00;5067658;28;20430;-77
2023/04/19 04:52:20;;;;;;;8.02;4.85;;;;;;;11.25;40.31;102089.53;5045200;28;20040;-77
2023/04/19 04:54:57;;;;;;;7.22;4.95;;;;;;;11.22;39.90;102097.97;5051564;28;20045;-77
2023/04/19 04:57:32;;;;;;;7.05;4.95;;;;;;;11.23;39.76;102106.06;5047373;28;20050;-77
2023/04/19 05:00:05;;;;;;;6.50;4.40;;;;;;;11.22;40.12;102097.97;5046645;28;20107;-76
2023/04/19 05:02:42;;;;;;;7.30;4.60;;;;;;;11.20;39.91;102097.22;5065110;28;20036;-76
2023/04/19 05:05:11;;;;;;;6.50;4.35;;;;;;;11.20;40.14;102098.09;5063098;28;20133;-77
2023/04/19 05:07:39;;;;;;;6.05;4.15;;;;;;;11.19;40.01;102087.22;5046728;28;20083;-76
2023/04/19 05:10:08;;;;;;;5.97;4.25;;;;;;;11.17;40.11;102095.56;5053539;28;20047;-76
2023/04/19 05:12:45;;;;;;;6.20;4.50;;;;;;;11.17;39.56;102092.81;5046430;28;20507;-77
2023/04/19 05:15:13;;;;;;;6.07;4.28;;;;;;;11.15;39.80;102094.78;5066964;28;20085;-77
2023/04/19 05:17:48;;;;;;;6.00;4.25;;;;;;;11.15;39.59;102096.63;5048986;28;20067;-77
2023/04/19 05:20:16;;;;;;;5.50;4.05;;;;;;;11.15;39.88;102102.13;5065309;28;20115;-77
2023/04/19 05:22:45;;;;;;;5.53;4.10;;;;;;;11.13;39.16;102096.78;5050645;28;20075;-77
2023/04/19 05:25:13;;;;;;;5.68;4.00;;;;;;;11.12;39.64;102086.78;5050949;28;20056;-77
2023/04/19 05:27:41;;;;;;;6.45;4.05;;;;;;;11.12;39.45;102094.13;5048770;28;20052;-77
2023/04/19 05:30:12;;;;;;;6.40;4.22;;;;;;;11.10;39.43;102096.97;5048099;28;20102;-77
2023/04/19 05:32:43;;;;;;;;;;;;;;;10.81;39.19;102098.13;5064027;28;20499;-77
2023/04/19 05:35:13;;;;;;;6.05;4.00;;;;;;;11.00;38.99;102104.06;5058569;28;19927;-77
2023/04/19 05:37:43;;;;;;;7.03;4.22;;;;;;;11.03;39.18;102101.13;5055189;28;20044;-77
2023/04/19 05:40:12;;;;;;;7.00;4.22;;;;;;;11.03;38.54;102098.41;5050029;28;20091;-77
2023/04/19 05:42:42;;;;;;;5.95;3.90;;;;;;;11.01;38.68;102094.88;5059555;28;20104;-77
2023/04/19 05:45:14;;;;;;;5.95;4.00;;;;;;;11.02;38.45;102102.13;5051742;28;20041;-77
2023/04/19 05:47:42;;;;;;;6.05;4.32;;;;;;;10.98;38.45;102090.47;5048363;28;20056;-77
2023/04/19 05:50:19;;;;;;;5.60;4.05;;;;;;;10.98;38.45;102106.91;5062105;28;20068;-77
2023/04/19 05:53:19;;;;;;;5.57;3.80;;;;;;;10.94;38.37;102099.91;5001334;28;20056;-76
2023/04/19 05:55:49;;;;;;;7.10;3.65;;;;;;;10.97;38.56;102094.22;5048964;28;20064;-76
2023/04/19 05:58:17;;;;;;;6.25;4.20;;;;;;;10.97;38.79;102101.56;5061913;28;20048;-77
2023/04/19 06:00:47;;;;;;;5.32;3.63;;;;;;;10.99;38.69;102092.25;5061415;28;20131;-76
2023/04/19 06:03:18;;;;;;;5.80;4.32;;;;;;;10.98;38.21;102103.28;5048785;28;20093;-77
2023/04/19 06:05:48;;;;;;;5.82;4.05;;;;;;;10.99;37.98;102094.09;5039488;28;20080;-76
2023/04/19 06:08:17;;;;;;;6.43;4.68;;;;;;;11.01;38.44;102086.66;5054161;28;20044;-75
2023/04/19 06:10:48;;;;;;;6.78;3.90;;;;;;;11.02;37.76;102099.38;5049758;28;20103;-75
2023/04/19 06:13:25;;;;;;;6.30;4.22;;;;;;;11.02;38.28;102098.50;5051553;28;20152;-75
2023/04/19 06:15:54;;;;;;;5.32;3.67;;;;;;;11.05;37.81;102109.25;5064542;28;20075;-75
2023/04/19 06:18:22;;;;;;;5.47;3.65;;;;;;;11.07;37.70;102093.56;5049052;28;20131;-74
2023/04/19 06:20:51;;;;;;;6.50;4.10;;;;;;;11.10;38.09;102098.84;5068645;28;20055;-75
2023/04/19 06:23:19;;;;;;;6.57;4.65;;;;;;;11.12;38.17;102099.59;5072087;28;20036;-75
2023/04/19 06:25:47;;;;;;;5.78;4.20;;;;;;;11.17;37.99;102097.41;5064122;28;20048;-76
2023/04/19 06:28:16;;;;;;;6.88;4.03;;;;;;;11.22;37.71;102098.88;5064806;28;20528;-76
2023/04/19 06:30:44;;;;;;;6.30;4.32;;;;;;;11.30;37.95;102101.94;5064619;28;20056;-76
2023/04/19 06:33:13;;;;;;;5.85;3.83;;;;;;;11.41;37.38;102100.28;5071563;28;20033;-75
2023/04/19 06:35:41;;;;;;;5.78;3.97;;;;;;;11.45;37.48;102101.81;5071992;28;20055;-78
2023/04/19 06:38:09;;;;;;;6.28;4.07;;;;;;;11.51;36.96;102099.50;5056305;28;20102;-79
2023/04/19 06:40:37;;;;;;;7.28;3.90;;;;;;;11.56;37.44;102094.56;5053590;28;20047;-78
2023/04/19 06:43:05;;;;;;;7.38;4.60;;;;;;;11.60;37.11;102097.97;5078178;28;20040;-78
2023/04/19 06:45:33;;;;;;;6.00;4.28;;;;;;;11.65;36.97;102096.66;5070560;28;20036;-78
2023/04/19 06:48:01;;;;;;;6.03;4.35;;;;;;;11.70;37.07;102097.22;5080690;28;20040;-77
2023/04/19 06:50:31;;;;;;;6.70;4.20;;;;;;;11.76;36.84;102095.91;5074709;28;20036;-77
2023/04/19 06:52:59;;;;;;;8.10;4.38;;;;;;;11.80;36.71;102094.66;5075064;28;20033;-77
2023/04/19 06:55:29;;;;;;;6.88;4.07;;;;;;;11.90;37.07;102092.13;5069964;28;20140;-77
2023/04/19 06:57:57;;;;;;;5.85;4.25;;;;;;;11.99;36.23;102091.44;5069692;28;20040;-77
2023/04/19 07:00:25;;;;;;;5.75;4.40;;;;;;;12.09;36.50;102111.75;5068899;28;20939;-77
2023/04/19 07:02:53;;;;;;;6.57;4.35;;;;;;;12.17;36.55;102095.56;5070281;28;20047;-77
2023/04/19 07:05:21;;;;;;;7.30;4.53;;;;;;;12.28;35.95;102103.00;5051943;28;20048;-77
2023/04/19 07:07:50;;;;;;;5.63;4.10;;;;;;;12.35;35.42;102102.44;5069803;28;20113;-77
2023/04/19 07:10:18;;;;;;;6.22;4.18;;;;;;;12.41;35.78;102106.56;5055117;28;20045;-78
2023/04/19 07:12:46;;;;;;;6.57;4.38;;;;;;;12.45;35.61;102087.03;5073375;28;20052;-76
2023/04/19 07:15:15;;;;;;;7.07;4.57;;;;;;;12.48;35.32;102091.38;5074987;28;20545;-77
2023/04/19 07:17:43;;;;;;;6.75;4.60;;;;;;;12.50;34.74;102089.41;5070405;28;20056;-77
2023/04/19 07:20:11;;;;;;;5.93;4.13;;;;;;;12.51;34.85;102085.66;5075165;28;20139;-76
2023/04/19 07:22:40;;;;;;;6.32;4.50;;;;;;;12.53;34.95;102082.81;5050355;28;20047;-76
2023/04/19 07:25:10;;;;;;;6.38;4.05;;;;;;;12.53;34.61;102088.31;5075337;28;20066;-76
2023/04/19 07:27:38;;;;;;;5.38;4.07;;;;;;;12.51;34.57;102091.16;5067981;28;20095;-76
2023/04/19 07:30:07;;;;;;;5.78;4.03;;;;;;;12.50;33.92;102086.66;5071281;28;20116;-76
2023/04/19 07:32:38;;;;;;;6.55;4.43;;;;;;;12.50;33.91;102089.41;5068566;28;20075;-77
2023/04/19 07:35:07;;;;;;;7.10;4.40;;;;;;;12.50;33.81;102089.41;5065959;28;20072;-77
2023/04/19 07:37:35;;;;;;;5.82;4.45;;;;;;;12.50;34.39;102082.03;5067694;28;20632;-75
2023/04/19 07:40:04;;;;;;;6.43;4.47;;;;;;;12.51;34.17;102074.69;5068533;28;20193;-77
2023/04/19 07:42:33;;;;;;;5.90;4.22;;;;;;;12.50;33.32;102076.56;5062148;28;20043;-77
2023/04/19 07:45:01;;;;;;;7.30;4.50;;;;;;;12.50;33.84;102076.56;5067261;28;20044;-76
2023/04/19 07:47:30;;;;;;;6.07;4.70;;;;;;;12.50;33.29;102086.66;5071166;28;20071;-76
2023/04/19 07:49:58;;;;;;;6.15;4.20;;;;;;;12.50;33.85;102081.16;5056588;28;20098;-76
2023/04/19 07:52:26;;;;;;;5.97;4.18;;;;;;;12.50;33.66;102084.78;5069060;28;20137;-76
2023/04/19 07:54:54;;;;;;;7.45;4.57;;;;;;;12.49;33.99;102077.53;5049471;28;20033;-74
2023/04/19 07:57:22;;;;;;;7.30;4.68;;;;;;;12.52;33.98;102073.69;5050319;28;20048;-76
2023/04/19 07:59:56;;;;;;;6.15;4.50;;;;;;;12.58;33.49;102083.31;5070657;28;20068;-76
2023/04/19 08:02:26;;;;;;;6.30;4.70;;;;;;;12.58;33.37;102078.72;5065685;28;20410;-76
2023/04/19 08:04:55;;;;;;;6.63;4.80;;;;;;;12.62;33.79;102090.38;5070258;28;20053;-77
2023/04/19 08:07:24;;;;;;;5.90;4.40;;;;;;;12.63;33.18;102081.13;5052324;28;20051;-77
2023/04/19 08:09:53;;;;;;;7.18;4.80;;;;;;;12.69;33.67;102080.66;5062998;28;20043;-76
2023/04/19 08:12:21;;;;;;;5.75;4.10;;;;;;;12.75;33.55;102077.44;5065799;28;20037;-76
2023/04/19 08:15:08;;;;;;;5.10;3.60;;;;;;;12.82;32.96;102079.59;5047578;28;20390;-74
2023/04/19 08:17:56;;;;;;;6.00;4.38;;;;;;;12.87;33.12;102066.34;5061687;28;20744;-75
2023/04/19 08:20:25;;;;;;;6.40;4.22;;;;;;;12.95;32.78;102079.53;5062931;28;20541;-75
2023/04/19 08:22:54;;;;;;;5.68;4.10;;;;;;;13.03;33.10;102082.53;5078594;28;20068;-75
2023/04/19 08:25:25;;;;;;;6.78;4.10;;;;;;;13.09;32.51;102078.44;5074950;28;20136;-75
2023/04/19 08:27:53;;;;;;;7.25;4.10;;;;;;;13.16;32.54;102074.19;5072178;28;20048;-75
2023/04/19 08:30:23;;;;;;;5.70;3.83;;;;;;;13.28;32.18;102084.22;5070431;28;20123;-75
2023/04/19 08:32:51;;;;;;;6.30;3.90;;;;;;;13.33;32.56;102083.84;5049945;28;20056;-75
2023/04/19 08:35:23;;;;;;;5.50;4.22;;;;;;;13.40;32.22;102083.22;5072628;28;20098;-75
2023/04/19 08:37:51;;;;;;;6.15;3.80;;;;;;;13.48;32.00;102083.47;5080232;28;20044;-75
2023/04/19 08:40:19;;;;;;;5.20;3.70;;;;;;;13.57;31.87;102082.78;5070812;28;20083;-74
2023/04/19 08:42:47;;;;;;;4.88;3.60;;;;;;;13.64;31.25;102085.91;5077370;28;20052;-75
2023/04/19 08:45:17;;;;;;;4.93;3.38;;;;;;;13.74;31.44;102073.16;5072629;28;20041;-75
2023/04/19 08:47:58;;;;;;;5.50;3.33;;;;;;;13.81;30.89;102076.28;5054289;28;20039;-75
2023/04/19 08:50:29;;;;;;;7.18;4.13;;;;;;;13.88;31.53;102077.50;5058780;28;20052;-75
2023/04/19 08:53:09;;;;;;;6.03;4.05;;;;;;;13.95;30.36;102081.50;5070058;28;20116;-75
2023/04/19 08:55:42;;;;;;;5.57;3.55;;;;;;;14.01;30.07;102078.25;5067868;28;20068;-75
2023/04/19 08:58:32;;;;;;;4.88;3.53;;;;;;;14.06;30.15;102081.50;5074368;28;20046;-75
2023/04/19 09:01:20;;;;;;;4.72;3.17;;;;;;;14.08;29.74;102079.50;5065553;28;20045;-75
2023/04/19 09:03:52;;;;;;;4.72;3.20;;;;;;;14.13;29.82;102079.09;5077177;28;20040;-74
2023/04/19 09:06:37;;;;;;;5.45;3.28;;;;;;;14.13;29.72;102084.59;5071020;28;20056;-74
2023/04/19 09:09:19;;;;;;;4.65;3.03;;;;;;;14.17;27.96;102075.09;5067196;28;20493;-75
2023/04/19 09:12:15;;;;;;;4.85;3.08;;;;;;;14.17;28.95;102077.84;5065708;28;20552;-75
2023/04/19 09:14:46;;;;;;;4.88;3.00;;;;;;;14.18;28.24;102077.72;5050248;28;20044;-74
2023/04/19 09:17:28;;;;;;;3.97;2.67;;;;;;;14.19;29.20;102078.63;5048049;28;20079;-75
2023/04/19 09:19:58;;;;;;;4.35;2.80;;;;;;;14.22;28.41;102070.94;5068531;28;20048;-75
2023/04/19 09:22:26;;;;;;;5.07;2.95;;;;;;;14.24;28.73;102068.94;5076234;28;20063;-75
2023/04/19 09:24:54;;;;;;;3.90;2.72;;;;;;;14.26;28.98;102064.19;5070287;28;20418;-75
2023/04/19 09:27:27;;;;;;;4.15;3.10;;;;;;;14.30;28.78;102059.28;5065260;28;20048;-75
2023/04/19 09:29:56;;;;;;;4.38;2.88;;;;;;;14.30;28.79;102060.16;5067854;28;20044;-75
2023/04/19 09:32:25;;;;;;;5.28;2.60;;;;;;;14.31;28.30;102063.78;5068069;28;20074;-76
2023/04/19 09:34:55;;;;;;;4.53;2.80;;;;;;;14.33;27.82;102057.16;5089403;28;20040;-75
2023/04/19 09:37:26;;;;;;;5.28;2.80;;;;;;;14.37;28.07;102057.75;5095334;28;20034;-75
2023/04/19 09:39:56;;;;;;;5.05;2.80;;;;;;;14.37;28.13;102046.75;5081863;28;20037;-75
2023/04/19 09:42:43;;;;;;;4.53;2.50;;;;;;;14.38;28.00;102038.34;5074552;28;20052;-75
2023/04/19 09:45:41;;;;;;;4.30;2.60;;;;;;;14.42;26.77;102043.63;5067189;28;20056;-75
2023/04/19 09:48:10;;;;;;;5.13;2.78;;;;;;;14.42;27.48;102038.97;5067385;28;20044;-76
2023/04/19 09:50:52;;;;;;;3.95;2.58;;;;;;;14.46;26.75;102039.56;5073143;28;20041;-76
2023/04/19 09:53:32;;;;;;;4.32;2.65;;;;;;;14.46;26.81;102040.44;5066276;28;20044;-76
2023/04/19 09:56:01;;;;;;;3.78;2.50;;;;;;;14.47;27.37;102033.06;5068627;28;20044;-76
2023/04/19 09:58:31;;;;;;;3.63;2.58;;;;;;;14.49;27.13;102029.22;5067236;28;20043;-77
2023/04/19 10:01:03;;;;;;;5.10;2.63;;;;;;;14.52;27.11;102052.88;5049397;28;20044;-75
2023/04/19 10:03:47;;;;;;;;;;;;;;;14.23;27.46;102041.53;5074312;28;20048;-75
2023/04/19 10:06:17;;;;;;;4.25;2.40;;;;;;;14.47;27.21;102033.97;5075050;28;19921;-75
2023/04/19 10:08:53;;;;;;;3.65;2.15;;;;;;;14.51;26.76;102037.34;5074329;28;20509;-76
2023/04/19 10:11:22;;;;;;;3.55;2.28;;;;;;;14.52;26.58;102031.69;5071799;28;20540;-76
2023/04/19 10:13:56;;;;;;;4.35;2.67;;;;;;;14.53;25.29;102025.19;5071515;28;20063;-76
2023/04/19 10:16:24;;;;;;;3.80;2.45;;;;;;;14.50;26.52;102032.84;5074452;28;20056;-78
2023/04/19 10:18:54;;;;;;;4.20;2.40;;;;;;;14.51;26.23;102023.59;5066808;28;20580;-76
2023/04/19 10:21:22;;;;;;;4.82;2.33;;;;;;;14.51;26.60;102034.59;5071056;28;20049;-76
2023/04/19 10:23:52;;;;;;;4.65;2.50;;;;;;;14.51;26.18;102018.94;5077094;28;20072;-76
2023/04/19 10:26:21;;;;;;;3.72;2.20;;;;;;;14.51;25.67;102029.97;5073308;28;20436;-76
2023/04/19 10:28:49;;;;;;;4.20;1.92;;;;;;;14.52;26.16;102019.81;5072219;28;20049;-76
2023/04/19 10:31:22;;;;;;;3.15;1.98;;;;;;;14.54;25.31;102021.41;5070906;28;20491;-76
2023/04/19 10:33:51;;;;;;;3.58;1.80;;;;;;;14.54;25.87;102021.41;5079107;28;20077;-76
2023/04/19 10:36:21;;;;;;;3.78;2.13;;;;;;;14.53;24.51;102013.28;5084610;28;20101;-76
2023/04/19 10:38:51;;;;;;;3.15;1.85;;;;;;;14.49;24.82;102012.69;5075709;28;20059;-75
2023/04/19 10:41:21;;;;;;;4.18;2.00;;;;;;;14.50;24.48;102011.69;5061230;28;20044;-75
2023/04/19 10:44:11;;;;;;;2.33;1.50;;;;;;;14.46;22.39;102020.28;5082667;28;20043;-75
2023/04/19 10:46:40;;;;;;;2.40;1.50;;;;;;;14.47;24.05;102017.44;5072570;28;20052;-75
2023/04/19 10:49:12;;;;;;;3.13;1.60;;;;;;;14.48;23.72;102018.31;5057957;28;20059;-75
2023/04/19 10:51:43;;;;;;;2.03;1.17;;;;;;;14.47;24.06;102014.69;5070830;28;20460;-75
2023/04/19 10:54:31;;;;;;;2.92;1.48;;;;;;;14.51;23.29;102005.19;5078932;28;20041;-76
2023/04/19 10:57:03;;;;;;;2.53;1.40;;;;;;;14.53;23.27;102014.16;5046100;28;20041;-76
2023/04/19 10:59:33;;;;;;;3.50;1.63;;;;;;;14.48;23.18;102013.69;5070047;28;20047;-76
2023/04/19 11:02:02;;;;;;;2.80;1.30;;;;;;;14.52;22.73;102006.06;5077393;28;20038;-75
2023/04/19 11:05:00;;;;;;;2.78;1.35;;;;;;;14.54;22.01;102004.00;5071178;28;20035;-76
2023/04/19 11:07:29;;;;;;;2.78;1.50;;;;;;;14.55;22.86;101998.38;5064096;28;20053;-74
2023/04/19 11:09:57;;;;;;;2.33;1.55;;;;;;;14.59;22.83;101996.25;5067328;28;20059;-77
2023/04/19 11:12:27;;;;;;;3.47;1.73;;;;;;;14.62;22.52;101999.59;5068870;28;20064;-75
2023/04/19 11:14:58;;;;;;;4.03;1.85;;;;;;;14.67;23.14;101988.19;5063833;28;20045;-74
2023/04/19 11:17:30;;;;;;;3.67;1.90;;;;;;;14.67;23.41;101989.06;5060440;28;20475;-74
2023/04/19 11:20:00;;;;;;;3.33;2.00;;;;;;;14.70;23.63;101975.00;5068190;28;20349;-73
2023/04/19 11:22:32;;;;;;;5.10;2.78;;;;;;;14.74;22.36;101975.63;5055973;28;20062;-73
2023/04/19 11:25:09;;;;;;;4.18;2.30;;;;;;;14.74;22.08;101992.16;5067086;28;20051;-76
2023/04/19 11:27:40;;;;;;;4.80;2.35;;;;;;;14.76;22.75;101990.16;5069139;28;20094;-75
2023/04/19 11:30:11;;;;;;;3.60;1.95;;;;;;;14.77;23.20;101983.59;5067597;28;20048;-74
2023/04/19 11:32:44;;;;;;;3.05;1.73;;;;;;;14.77;22.21;101976.19;5065981;28;20083;-74
2023/04/19 11:35:13;;;;;;;4.47;1.83;;;;;;;14.76;22.93;101968.09;5066328;28;20032;-76
2023/04/19 11:37:41;;;;;;;3.28;1.88;;;;;;;14.79;23.32;101976.06;5072133;28;20075;-75